createdAt,value
2023-06-25T00:00:40.188Z,1.10
2023-06-25T00:03:08.064Z,1.00
2023-06-25T00:05:36.046Z,0.80
2023-06-25T00:08:04.132Z,1.02
2023-06-25T00:10:32.042Z,0.95
2023-06-25T00:12:59.960Z,0.90
2023-06-25T00:15:28.770Z,0.63
2023-06-25T00:17:57.148Z,0.80
2023-06-25T00:20:27.860Z,0.80
2023-06-25T00:23:06.670Z,0.77
2023-06-25T00:25:36.274Z,0.88
2023-06-25T00:28:09.698Z,0.90
2023-06-25T00:30:39.736Z,1.10
2023-06-25T00:33:08.624Z,1.63
2023-06-25T00:35:51.579Z,1.30
2023-06-25T00:38:19.528Z,0.90
2023-06-25T00:40:47.499Z,1.23
2023-06-25T00:43:16.834Z,1.10
2023-06-25T00:45:45.968Z,1.23
2023-06-25T00:48:14.734Z,1.02
2023-06-25T00:50:43.311Z,0.82
2023-06-25T00:53:14.618Z,0.60
2023-06-25T00:55:42.482Z,0.82
2023-06-25T00:58:10.451Z,0.73
2023-06-25T01:00:38.775Z,0.88
2023-06-25T01:03:28.092Z,0.73
2023-06-25T01:06:36.844Z,0.70
2023-06-25T01:09:07.615Z,0.70
2023-06-25T01:11:36.543Z,1.10
2023-06-25T01:14:04.707Z,0.80
2023-06-25T01:16:33.210Z,0.85
2023-06-25T01:19:05.605Z,0.90
2023-06-25T01:21:35.765Z,0.80
2023-06-25T01:24:03.948Z,0.95
2023-06-25T01:26:31.970Z,0.70
2023-06-25T01:28:59.841Z,0.80
2023-06-25T01:31:32.510Z,0.77
2023-06-25T01:34:01.307Z,0.70
2023-06-25T01:36:29.303Z,0.80
2023-06-25T01:38:57.207Z,0.75
2023-06-25T01:41:25.118Z,1.00
2023-06-25T01:43:53.020Z,0.63
2023-06-25T01:46:20.975Z,0.73
2023-06-25T01:48:49.068Z,0.50
2023-06-25T01:51:16.974Z,0.57
2023-06-25T01:53:44.892Z,0.77
2023-06-25T01:56:12.897Z,0.60
2023-06-25T01:58:40.885Z,0.60
2023-06-25T02:01:08.811Z,0.90
2023-06-25T02:03:36.789Z,0.40
2023-06-25T02:06:04.787Z,0.50
2023-06-25T02:08:33.032Z,0.60
2023-06-25T02:11:02.025Z,0.50
2023-06-25T02:13:29.817Z,0.60
2023-06-25T02:15:57.985Z,0.50
2023-06-25T02:18:26.051Z,0.60
2023-06-25T02:20:54.653Z,0.70
2023-06-25T02:23:23.358Z,0.60
2023-06-25T02:25:51.575Z,0.57
2023-06-25T02:28:19.685Z,0.35
2023-06-25T02:30:48.560Z,0.70
2023-06-25T02:33:16.798Z,0.60
2023-06-25T02:35:44.806Z,0.52
2023-06-25T02:38:12.805Z,1.58
2023-06-25T02:40:40.811Z,2.72
2023-06-25T02:43:08.765Z,1.67
2023-06-25T02:45:37.033Z,0.70
2023-06-25T02:48:06.618Z,0.70
2023-06-25T02:50:34.688Z,0.80
2023-06-25T02:53:02.807Z,0.63
2023-06-25T02:55:30.645Z,0.63
2023-06-25T02:57:59.021Z,0.70
2023-06-25T03:00:26.957Z,0.73
2023-06-25T03:02:54.923Z,1.10
2023-06-25T03:05:23.251Z,0.50
2023-06-25T03:07:57.442Z,1.10
2023-06-25T03:10:31.251Z,0.43
2023-06-25T03:12:59.370Z,0.60
2023-06-25T03:15:27.977Z,0.75
2023-06-25T03:17:55.976Z,0.70
2023-06-25T03:20:24.015Z,0.47
2023-06-25T03:22:51.990Z,0.60
2023-06-25T03:25:19.999Z,0.57
2023-06-25T03:27:54.863Z,0.73
2023-06-25T03:30:22.864Z,0.73
2023-06-25T03:32:50.725Z,1.10
2023-06-25T03:35:19.697Z,0.80
2023-06-25T03:37:47.928Z,0.68
2023-06-25T03:40:16.065Z,0.65
2023-06-25T03:42:44.514Z,1.00
2023-06-25T03:45:14.541Z,1.38
2023-06-25T03:47:43.141Z,0.80
2023-06-25T03:50:11.624Z,0.60
2023-06-25T03:52:39.814Z,0.57
2023-06-25T03:55:08.569Z,0.68
2023-06-25T03:57:37.629Z,0.68
2023-06-25T04:00:07.696Z,0.90
2023-06-25T04:02:41.138Z,1.05
2023-06-25T04:05:09.717Z,0.80
2023-06-25T04:07:37.653Z,1.00
2023-06-25T04:10:06.065Z,0.70
2023-06-25T04:12:33.978Z,0.80
2023-06-25T04:15:03.012Z,0.63
2023-06-25T04:17:31.458Z,0.90
2023-06-25T04:19:59.379Z,1.17
2023-06-25T04:22:27.319Z,0.88
2023-06-25T04:24:55.371Z,1.00
2023-06-25T04:27:23.428Z,0.82
2023-06-25T04:29:51.515Z,0.98
2023-06-25T04:32:19.546Z,0.82
2023-06-25T04:34:47.476Z,0.63
2023-06-25T04:37:15.772Z,1.10
2023-06-25T04:39:43.638Z,0.77
2023-06-25T04:42:12.516Z,0.93
2023-06-25T04:44:40.519Z,1.00
2023-06-25T04:47:08.629Z,0.70
2023-06-25T04:49:37.201Z,0.90
2023-06-25T04:52:05.615Z,1.08
2023-06-25T04:54:33.610Z,1.00
2023-06-25T04:57:01.617Z,0.88
2023-06-25T04:59:29.572Z,0.80
2023-06-25T05:01:57.524Z,1.02
2023-06-25T05:04:25.450Z,0.63
2023-06-25T05:06:53.597Z,1.00
2023-06-25T05:09:21.553Z,1.00
2023-06-25T05:11:49.493Z,0.60
2023-06-25T05:14:17.521Z,0.60
2023-06-25T05:16:45.412Z,0.80
2023-06-25T05:19:13.385Z,0.70
2023-06-25T05:21:42.105Z,0.77
2023-06-25T05:24:09.929Z,0.80
2023-06-25T05:26:37.919Z,0.70
2023-06-25T05:29:06.133Z,0.73
2023-06-25T05:31:34.150Z,1.25
2023-06-25T05:34:02.021Z,0.70
2023-06-25T05:36:30.349Z,1.08
2023-06-25T05:38:58.232Z,0.80
2023-06-25T05:41:26.064Z,1.00
2023-06-25T05:43:53.973Z,0.70
2023-06-25T05:46:21.953Z,0.63
2023-06-25T05:48:49.912Z,0.80
2023-06-25T05:51:17.859Z,0.60
2023-06-25T05:53:47.226Z,0.70
2023-06-25T05:56:17.034Z,0.30
2023-06-25T05:58:45.447Z,0.50
2023-06-25T06:01:13.980Z,0.70
2023-06-25T06:03:42.317Z,0.60
2023-06-25T06:06:10.956Z,0.55
2023-06-25T06:08:39.429Z,0.63
2023-06-25T06:11:07.665Z,0.63
2023-06-25T06:13:35.948Z,0.70
2023-06-25T06:16:04.779Z,0.82
2023-06-25T06:18:33.098Z,0.77
2023-06-25T06:21:01.338Z,0.60
2023-06-25T06:23:29.789Z,0.77
2023-06-25T06:25:58.033Z,0.80
2023-06-25T06:28:26.266Z,1.00
2023-06-25T06:30:54.637Z,0.77
2023-06-25T06:33:23.274Z,0.93
2023-06-25T06:35:51.585Z,1.02
2023-06-25T06:38:19.832Z,0.77
2023-06-25T06:40:48.321Z,0.93
2023-06-25T06:43:16.802Z,1.00
2023-06-25T06:45:44.965Z,0.80
2023-06-25T06:48:13.408Z,1.02
2023-06-25T06:50:41.685Z,2.53
2023-06-25T06:53:10.666Z,1.45
2023-06-25T06:55:39.366Z,0.90
2023-06-25T06:58:07.692Z,0.93
2023-06-25T07:00:36.009Z,1.20
2023-06-25T07:03:04.480Z,0.90
2023-06-25T07:05:32.933Z,1.15
2023-06-25T07:08:01.249Z,0.98
2023-06-25T07:10:30.037Z,1.20
2023-06-25T07:12:58.311Z,0.80
2023-06-25T07:15:26.835Z,0.43
2023-06-25T07:17:55.294Z,0.82
2023-06-25T07:20:23.756Z,0.90
2023-06-25T07:22:52.543Z,0.73
2023-06-25T07:25:21.360Z,1.05
2023-06-25T07:27:50.382Z,0.90
2023-06-25T07:30:18.605Z,0.90
2023-06-25T07:32:47.028Z,1.00
2023-06-25T07:35:15.434Z,1.05
2023-06-25T07:37:43.633Z,1.00
2023-06-25T07:40:12.195Z,1.20
2023-06-25T07:42:40.510Z,1.40
2023-06-25T07:45:10.497Z,1.40
2023-06-25T07:47:39.638Z,1.38
2023-06-25T07:50:08.768Z,1.88
2023-06-25T07:52:36.986Z,1.67
2023-06-25T07:55:06.925Z,1.73
2023-06-25T07:57:35.538Z,1.23
2023-06-25T08:00:04.651Z,1.30
2023-06-25T08:02:41.219Z,1.45
2023-06-25T08:05:09.944Z,1.40
2023-06-25T08:07:38.907Z,1.10
2023-06-25T08:10:07.828Z,1.30
2023-06-25T08:12:36.006Z,1.60
2023-06-25T08:15:05.248Z,1.08
2023-06-25T08:17:34.979Z,1.33
2023-06-25T08:20:03.814Z,1.55
2023-06-25T08:22:32.029Z,1.35
2023-06-25T08:25:00.352Z,1.48
2023-06-25T08:27:28.739Z,1.40
2023-06-25T08:29:56.980Z,1.33
2023-06-25T08:32:25.260Z,1.35
2023-06-25T08:34:53.819Z,1.40
2023-06-25T08:37:22.458Z,1.70
2023-06-25T08:39:50.859Z,1.45
2023-06-25T08:42:19.134Z,1.60
2023-06-25T08:44:47.908Z,1.83
2023-06-25T08:47:20.956Z,1.55
2023-06-25T08:49:52.094Z,1.80
2023-06-25T08:52:22.223Z,1.20
2023-06-25T08:54:52.065Z,1.45
2023-06-25T08:57:20.911Z,1.40
2023-06-25T08:59:49.392Z,1.20
2023-06-25T09:02:17.994Z,1.50
2023-06-25T09:04:48.192Z,1.55
2023-06-25T09:07:21.200Z,1.17
2023-06-25T09:09:55.862Z,1.50
2023-06-25T09:12:26.540Z,1.52
2023-06-25T09:14:58.347Z,1.38
2023-06-25T09:17:26.985Z,1.50
2023-06-25T09:19:55.619Z,1.42
2023-06-25T09:22:24.078Z,1.48
2023-06-25T09:24:52.342Z,1.45
2023-06-25T09:27:21.943Z,1.60
2023-06-25T09:29:50.578Z,1.58
2023-06-25T09:32:19.205Z,1.48
2023-06-25T09:34:48.003Z,1.27
2023-06-25T09:37:16.418Z,1.80
2023-06-25T09:39:44.821Z,1.77
2023-06-25T09:42:13.746Z,1.27
2023-06-25T09:44:43.463Z,1.35
2023-06-25T09:47:16.854Z,1.60
2023-06-25T09:49:45.852Z,1.60
2023-06-25T09:52:15.988Z,1.45
2023-06-25T09:54:46.237Z,1.77
2023-06-25T09:57:17.856Z,1.48
2023-06-25T09:59:47.301Z,1.20
2023-06-25T10:02:17.451Z,1.63
2023-06-25T10:04:46.225Z,1.60
2023-06-25T10:07:15.671Z,1.52
2023-06-25T10:09:56.647Z,1.45
2023-06-25T10:12:25.084Z,1.40
2023-06-25T10:14:55.710Z,1.45
2023-06-25T10:17:25.259Z,1.80
2023-06-25T10:19:57.904Z,1.60
2023-06-25T10:22:28.969Z,1.30
2023-06-25T10:24:58.083Z,1.50
2023-06-25T10:27:26.409Z,1.63
2023-06-25T10:29:55.859Z,1.80
2023-06-25T10:32:29.021Z,1.48
2023-06-25T10:35:01.698Z,1.58
2023-06-25T10:37:35.024Z,1.45
2023-06-25T10:40:09.048Z,1.30
2023-06-25T10:42:38.902Z,1.45
2023-06-25T10:45:08.311Z,1.88
2023-06-25T10:47:37.213Z,1.35
2023-06-25T10:50:06.043Z,1.58
2023-06-25T10:52:35.033Z,1.20
2023-06-25T10:55:04.070Z,1.58
2023-06-25T10:57:33.369Z,1.50
2023-06-25T11:00:02.071Z,1.48
2023-06-25T11:02:31.810Z,1.33
2023-06-25T11:05:00.663Z,1.60
2023-06-25T11:07:29.254Z,1.60
2023-06-25T11:10:01.572Z,1.38
2023-06-25T11:12:31.030Z,1.77
2023-06-25T11:15:00.410Z,1.45
2023-06-25T11:17:29.198Z,1.63
2023-06-25T11:19:59.498Z,1.25
2023-06-25T11:22:28.063Z,1.50
2023-06-25T11:24:58.118Z,1.55
2023-06-25T11:27:28.384Z,1.65
2023-06-25T11:29:57.093Z,1.63
2023-06-25T11:32:28.992Z,1.27
2023-06-25T11:34:59.692Z,1.30
2023-06-25T11:37:33.196Z,1.50
2023-06-25T11:40:02.314Z,1.75
2023-06-25T11:42:32.425Z,1.52
2023-06-25T11:45:08.275Z,1.42
2023-06-25T11:47:37.105Z,1.85
2023-06-25T11:50:06.042Z,1.30
2023-06-25T11:52:35.280Z,1.48
2023-06-25T11:55:04.019Z,1.85
2023-06-25T11:57:32.515Z,1.52
2023-06-25T12:00:01.000Z,1.40
2023-06-25T12:02:44.526Z,1.60
2023-06-25T12:05:17.950Z,1.48
2023-06-25T12:07:46.605Z,1.40
2023-06-25T12:10:14.990Z,1.85
2023-06-25T12:12:45.621Z,1.52
2023-06-25T12:15:14.220Z,1.60
2023-06-25T12:17:43.864Z,1.63
2023-06-25T12:20:12.426Z,1.80
2023-06-25T12:22:40.833Z,1.90
2023-06-25T12:25:09.414Z,1.73
2023-06-25T12:27:40.862Z,1.73
2023-06-25T12:30:10.288Z,1.52
2023-06-25T12:32:38.677Z,1.85
2023-06-25T12:35:07.692Z,1.73
2023-06-25T12:37:35.933Z,1.98
2023-06-25T12:40:07.027Z,1.50
2023-06-25T12:42:36.419Z,1.70
2023-06-25T12:45:04.897Z,1.20
2023-06-25T12:47:33.274Z,1.52
2023-06-25T12:50:02.087Z,2.05
2023-06-25T12:52:31.980Z,2.05
2023-06-25T12:55:00.363Z,1.65
2023-06-25T12:57:29.989Z,1.48
2023-06-25T12:59:58.506Z,1.48
2023-06-25T13:02:27.192Z,2.35
2023-06-25T13:04:55.470Z,1.85
2023-06-25T13:07:24.871Z,2.22
2023-06-25T13:09:53.959Z,2.28
2023-06-25T13:12:22.257Z,1.33
2023-06-25T13:14:50.619Z,1.58
2023-06-25T13:17:20.281Z,1.80
2023-06-25T13:19:48.902Z,1.70
2023-06-25T13:22:17.375Z,1.67
2023-06-25T13:24:45.680Z,1.65
2023-06-25T13:27:14.305Z,2.08
2023-06-25T13:29:43.198Z,1.52
2023-06-25T13:32:11.722Z,1.85
2023-06-25T13:34:40.328Z,1.75
2023-06-25T13:37:08.703Z,1.35
2023-06-25T13:39:39.245Z,1.90
2023-06-25T13:42:08.366Z,1.35
2023-06-25T13:44:36.753Z,1.50
2023-06-25T13:47:05.588Z,1.75
2023-06-25T13:49:33.928Z,1.60
2023-06-25T13:52:03.017Z,1.10
2023-06-25T13:54:31.967Z,1.45
2023-06-25T13:57:05.297Z,1.83
2023-06-25T13:59:35.746Z,1.42
2023-06-25T14:02:07.071Z,1.50
2023-06-25T14:04:40.566Z,1.52
2023-06-25T14:07:11.987Z,1.88
2023-06-25T14:09:45.595Z,1.60
2023-06-25T14:12:15.074Z,2.17
2023-06-25T14:14:44.077Z,1.52
2023-06-25T14:17:13.665Z,1.52
2023-06-25T14:19:45.173Z,1.80
2023-06-25T14:22:16.792Z,1.48
2023-06-25T14:24:45.524Z,1.50
2023-06-25T14:27:14.292Z,1.50
2023-06-25T14:29:42.596Z,1.77
2023-06-25T14:32:10.948Z,1.60
2023-06-25T14:34:39.317Z,1.60
2023-06-25T14:37:07.869Z,1.48
2023-06-25T14:39:36.153Z,1.88
2023-06-25T14:42:04.884Z,1.58
2023-06-25T14:44:33.444Z,1.92
2023-06-25T14:47:01.913Z,2.00
2023-06-25T14:49:30.289Z,1.60
2023-06-25T14:51:58.832Z,1.80
2023-06-25T14:54:27.257Z,1.85
2023-06-25T14:56:55.488Z,1.30
2023-06-25T14:59:23.950Z,1.50
2023-06-25T15:01:52.621Z,1.55
2023-06-25T15:04:21.339Z,1.30
2023-06-25T15:06:50.168Z,1.52
2023-06-25T15:09:19.981Z,1.65
2023-06-25T15:11:50.098Z,1.73
2023-06-25T15:14:22.989Z,1.80
2023-06-25T15:16:51.423Z,1.67
2023-06-25T15:19:19.738Z,1.60
2023-06-25T15:21:48.105Z,1.80
2023-06-25T15:24:16.583Z,1.73
2023-06-25T15:26:45.092Z,1.70
2023-06-25T15:29:13.474Z,1.65
2023-06-25T15:31:41.840Z,1.63
2023-06-25T15:34:11.260Z,1.85
2023-06-25T15:36:41.620Z,1.60
2023-06-25T15:39:10.071Z,1.85
2023-06-25T15:41:39.543Z,1.92
2023-06-25T15:44:07.990Z,1.98
2023-06-25T15:46:41.397Z,1.45
2023-06-25T15:49:10.089Z,1.63
2023-06-25T15:51:40.358Z,1.40
2023-06-25T15:56:41.672Z,1.40
2023-06-25T15:59:11.374Z,1.70
2023-06-25T16:01:40.033Z,1.30
2023-06-25T16:04:08.570Z,1.63
2023-06-25T16:06:36.763Z,1.85
2023-06-25T16:09:05.141Z,2.00
2023-06-25T16:11:34.092Z,3.33
2023-06-25T16:14:03.693Z,2.53
2023-06-25T16:16:32.768Z,2.25
2023-06-25T16:19:22.128Z,2.45
2023-06-25T16:21:50.223Z,1.95
2023-06-25T16:24:18.710Z,1.80
2023-06-25T16:26:49.649Z,2.00
2023-06-25T16:29:19.848Z,2.00
2023-06-25T16:31:49.762Z,1.75
2023-06-25T16:34:18.023Z,2.03
2023-06-25T16:36:46.242Z,2.30
2023-06-25T16:39:14.834Z,1.75
2023-06-25T16:41:43.206Z,1.40
2023-06-25T16:44:11.539Z,2.33
2023-06-25T16:46:40.880Z,1.92
2023-06-25T16:49:09.275Z,2.17
2023-06-25T16:51:37.705Z,2.10
2023-06-25T16:54:06.308Z,1.92
2023-06-25T16:56:36.038Z,2.40
2023-06-25T16:59:04.682Z,2.33
2023-06-25T17:01:35.931Z,1.90
2023-06-25T17:04:05.135Z,2.03
2023-06-25T17:06:33.611Z,1.90
2023-06-25T17:09:01.991Z,2.05
2023-06-25T17:11:32.692Z,1.90
2023-06-25T17:14:01.157Z,2.47
2023-06-25T17:16:29.493Z,3.60
2023-06-25T17:18:58.945Z,5.90
2023-06-25T17:21:27.300Z,3.65
2023-06-25T17:23:55.753Z,2.83
2023-06-25T17:26:24.236Z,4.13
2023-06-25T17:28:52.554Z,5.90
2023-06-25T17:31:21.272Z,7.05
2023-06-25T17:33:49.482Z,4.78
2023-06-25T17:36:17.898Z,5.55
2023-06-25T17:38:46.135Z,2.95
2023-06-25T17:41:16.713Z,3.35
2023-06-25T17:43:45.343Z,3.35
2023-06-25T17:46:13.838Z,2.65
2023-06-25T17:48:42.460Z,2.22
2023-06-25T17:51:10.742Z,2.05
2023-06-25T17:53:39.142Z,2.47
2023-06-25T17:56:08.805Z,3.00
2023-06-25T17:58:37.326Z,2.97
2023-06-25T18:01:05.848Z,2.50
2023-06-25T18:03:34.686Z,2.88
2023-06-25T18:06:03.583Z,2.38
2023-06-25T18:08:32.101Z,2.38
2023-06-25T18:11:00.855Z,2.25
2023-06-25T18:13:29.589Z,2.03
2023-06-25T18:16:01.558Z,1.83
2023-06-25T18:18:32.017Z,2.10
2023-06-25T18:21:00.445Z,2.28
2023-06-25T18:23:28.934Z,2.42
2023-06-25T18:26:00.467Z,2.20
2023-06-25T18:28:29.536Z,2.20
2023-06-25T18:31:00.160Z,2.30
2023-06-25T18:33:28.591Z,2.40
2023-06-25T18:35:57.267Z,2.00
2023-06-25T18:38:26.760Z,2.40
2023-06-25T18:41:00.071Z,2.15
2023-06-25T18:43:32.044Z,2.03
2023-06-25T18:46:00.594Z,2.30
2023-06-25T18:48:29.162Z,1.70
2023-06-25T18:50:57.815Z,2.35
2023-06-25T18:53:26.780Z,2.55
2023-06-25T18:55:56.959Z,2.22
2023-06-25T18:58:25.323Z,2.05
2023-06-25T19:00:53.714Z,2.13
2023-06-25T19:03:22.299Z,2.05
2023-06-25T19:05:50.877Z,2.47
2023-06-25T19:08:19.619Z,2.05
2023-06-25T19:10:47.908Z,1.95
2023-06-25T19:13:16.325Z,2.85
2023-06-25T19:15:44.814Z,1.90
2023-06-25T19:18:14.152Z,2.00
2023-06-25T19:20:44.096Z,2.03
2023-06-25T19:25:44.519Z,2.30
2023-06-25T19:28:13.000Z,2.05
2023-06-25T19:30:42.806Z,2.25
2023-06-25T19:33:11.447Z,2.17
2023-06-25T19:35:39.909Z,2.22
2023-06-25T19:38:08.374Z,2.65
2023-06-25T19:40:37.522Z,2.45
2023-06-25T19:43:08.224Z,2.92
2023-06-25T19:45:37.135Z,2.70
2023-06-25T19:48:05.756Z,2.38
2023-06-25T19:50:37.758Z,2.85
2023-06-25T19:53:06.421Z,2.35
2023-06-25T19:55:37.573Z,2.33
2023-06-25T19:58:07.269Z,2.53
2023-06-25T20:00:36.083Z,2.58
2023-06-25T20:03:04.844Z,2.78
2023-06-25T20:05:33.202Z,2.58
2023-06-25T20:08:02.131Z,3.17
2023-06-25T20:10:30.702Z,3.00
2023-06-25T20:12:59.283Z,2.92
2023-06-25T20:15:27.981Z,2.83
2023-06-25T20:17:57.097Z,3.80
2023-06-25T20:20:25.962Z,3.22
2023-06-25T20:22:55.574Z,3.08
2023-06-25T20:25:28.084Z,2.92
2023-06-25T20:28:00.063Z,3.20
2023-06-25T20:30:35.284Z,2.97
2023-06-25T20:33:06.231Z,3.65
2023-06-25T20:35:37.715Z,2.50
2023-06-25T20:38:06.850Z,2.70
2023-06-25T20:40:35.456Z,2.70
2023-06-25T20:43:05.495Z,2.65
2023-06-25T20:45:34.140Z,2.53
2023-06-25T20:48:03.420Z,3.28
2023-06-25T20:50:32.110Z,3.00
2023-06-25T20:53:00.697Z,2.90
2023-06-25T20:55:29.542Z,2.90
2023-06-25T20:57:57.980Z,2.20
2023-06-25T21:00:26.447Z,2.75
2023-06-25T21:02:58.200Z,2.90
2023-06-25T21:05:26.839Z,2.90
2023-06-25T21:07:55.427Z,2.80
2023-06-25T21:10:23.854Z,3.30
2023-06-25T21:12:52.694Z,2.72
2023-06-25T21:15:21.219Z,3.30
2023-06-25T21:17:49.835Z,3.15
2023-06-25T21:20:18.414Z,3.30
2023-06-25T21:22:51.679Z,2.78
2023-06-25T21:25:22.076Z,2.38
2023-06-25T21:27:50.597Z,2.50
2023-06-25T21:30:21.898Z,2.40
2023-06-25T21:32:51.991Z,2.90
2023-06-25T21:35:20.710Z,2.58
2023-06-25T21:37:49.089Z,2.85
2023-06-25T21:40:17.517Z,3.10
2023-06-25T21:42:46.402Z,2.63
2023-06-25T21:45:16.582Z,2.58
2023-06-25T21:47:45.223Z,3.53
2023-06-25T21:50:13.708Z,2.88
2023-06-25T21:52:42.129Z,3.00
2023-06-25T21:55:10.500Z,3.17
2023-06-25T21:57:39.088Z,3.40
2023-06-25T22:00:13.198Z,3.00
2023-06-25T22:02:44.240Z,2.65
2023-06-25T22:05:12.330Z,2.78
2023-06-25T22:07:40.429Z,3.30
2023-06-25T22:10:08.542Z,3.10
2023-06-25T22:12:36.381Z,2.92
2023-06-25T22:15:04.576Z,3.17
2023-06-25T22:17:32.649Z,2.80
2023-06-25T22:20:01.218Z,3.10
2023-06-25T22:22:29.222Z,2.92
2023-06-25T22:24:57.093Z,3.22
2023-06-25T22:27:26.316Z,2.58
2023-06-25T22:29:54.241Z,3.22
2023-06-25T22:32:22.418Z,3.00
2023-06-25T22:34:50.375Z,3.22
2023-06-25T22:37:18.486Z,2.80
2023-06-25T22:39:46.396Z,2.85
2023-06-25T22:42:14.403Z,2.60
2023-06-25T22:44:42.347Z,2.65
2023-06-25T22:47:10.241Z,2.22
2023-06-25T22:49:38.108Z,2.65
2023-06-25T22:52:06.615Z,2.97
2023-06-25T22:54:34.554Z,2.53
2023-06-25T22:57:02.472Z,2.92
2023-06-25T22:59:30.492Z,3.05
2023-06-25T23:01:58.712Z,2.88
2023-06-25T23:04:26.844Z,2.80
2023-06-25T23:06:54.996Z,2.67
2023-06-25T23:09:23.002Z,3.08
2023-06-25T23:11:50.991Z,2.63
2023-06-25T23:14:18.923Z,2.22
2023-06-25T23:16:46.908Z,2.90
2023-06-25T23:19:18.387Z,3.13
2023-06-25T23:21:49.564Z,2.90
2023-06-25T23:24:17.538Z,4.05
2023-06-25T23:26:48.598Z,2.85
2023-06-25T23:29:18.188Z,2.88
2023-06-25T23:31:47.195Z,2.65
2023-06-25T23:34:15.216Z,2.95
2023-06-25T23:36:43.139Z,2.67
2023-06-25T23:39:10.999Z,2.90
2023-06-25T23:41:40.079Z,3.20
2023-06-25T23:44:08.109Z,2.88
2023-06-25T23:46:36.145Z,2.90
2023-06-25T23:49:05.418Z,3.35
2023-06-25T23:51:34.481Z,3.15
2023-06-25T23:54:02.561Z,2.85
2023-06-25T23:56:33.505Z,2.50
2023-06-25T23:59:05.093Z,2.60
